createdAt,value
2019-03-20T00:01:52.288Z,10.80
2019-03-20T00:04:22.198Z,10.70
2019-03-20T00:06:51.633Z,10.70
2019-03-20T00:09:21.074Z,10.70
2019-03-20T00:11:50.801Z,10.70
2019-03-20T00:14:20.224Z,10.70
2019-03-20T00:16:49.608Z,10.70
2019-03-20T00:19:19.121Z,10.80
2019-03-20T00:21:48.760Z,10.90
2019-03-20T00:24:19.082Z,10.90
2019-03-20T00:26:48.548Z,10.80
2019-03-20T00:29:18.081Z,10.80
2019-03-20T00:31:47.916Z,10.80
2019-03-20T00:34:17.549Z,10.80
2019-03-20T00:36:47.045Z,10.70
2019-03-20T00:39:17.025Z,10.80
2019-03-20T00:41:46.493Z,10.80
2019-03-20T00:44:15.945Z,10.70
2019-03-20T00:46:45.509Z,10.80
2019-03-20T00:49:14.996Z,10.90
2019-03-20T00:51:44.417Z,10.90
2019-03-20T00:54:13.930Z,10.80
2019-03-20T00:56:47.136Z,10.80
2019-03-20T00:59:16.641Z,10.80
2019-03-20T01:01:46.054Z,10.70
2019-03-20T01:04:15.829Z,10.70
2019-03-20T01:06:45.326Z,10.80
2019-03-20T01:09:14.881Z,10.80
2019-03-20T01:11:44.362Z,10.80
2019-03-20T01:14:13.921Z,10.90
2019-03-20T01:16:43.336Z,10.90
2019-03-20T01:19:13.040Z,10.80
2019-03-20T01:21:45.602Z,10.80
2019-03-20T01:24:15.043Z,10.70
2019-03-20T01:26:44.560Z,10.70
2019-03-20T01:29:14.152Z,10.70
2019-03-20T01:31:43.575Z,10.70
2019-03-20T01:34:13.033Z,10.60
2019-03-20T01:36:42.452Z,10.60
2019-03-20T01:39:13.155Z,10.60
2019-03-20T01:41:42.610Z,10.60
2019-03-20T01:44:12.190Z,10.50
2019-03-20T01:46:43.006Z,10.60
2019-03-20T01:49:13.754Z,10.50
2019-03-20T01:51:43.259Z,10.60
2019-03-20T01:54:12.784Z,10.60
2019-03-20T01:56:42.345Z,10.60
2019-03-20T01:59:11.821Z,10.60
2019-03-20T02:01:41.287Z,10.40
2019-03-20T02:04:10.782Z,10.50
2019-03-20T02:06:40.384Z,10.70
2019-03-20T02:09:09.945Z,10.60
2019-03-20T02:11:39.532Z,10.60
2019-03-20T02:14:09.051Z,10.60
2019-03-20T02:16:38.579Z,10.60
2019-03-20T02:19:14.100Z,10.60
2019-03-20T02:21:43.568Z,10.60
2019-03-20T02:24:13.070Z,10.60
2019-03-20T02:26:44.144Z,10.60
2019-03-20T02:29:13.856Z,10.60
2019-03-20T02:31:43.254Z,10.50
2019-03-20T02:34:12.697Z,10.60
2019-03-20T02:36:42.240Z,10.50
2019-03-20T02:39:18.007Z,10.60
2019-03-20T02:41:47.451Z,10.70
2019-03-20T02:44:16.880Z,10.70
2019-03-20T02:46:46.333Z,10.60
2019-03-20T02:49:15.884Z,10.60
2019-03-20T02:51:45.908Z,10.60
2019-03-20T02:54:15.361Z,10.50
2019-03-20T02:56:44.764Z,10.50
2019-03-20T02:59:14.318Z,10.50
2019-03-20T03:01:43.804Z,10.40
2019-03-20T03:04:13.644Z,10.40
2019-03-20T03:06:43.151Z,10.40
2019-03-20T03:09:12.667Z,10.40
2019-03-20T03:11:42.260Z,10.50
2019-03-20T03:14:12.733Z,10.40
2019-03-20T03:16:42.164Z,10.60
2019-03-20T03:19:11.585Z,10.50
2019-03-20T03:21:41.698Z,10.60
2019-03-20T03:24:11.185Z,10.60
2019-03-20T03:26:40.772Z,10.60
2019-03-20T03:29:11.207Z,10.70
2019-03-20T03:31:40.667Z,10.60
2019-03-20T03:34:10.269Z,10.60
2019-03-20T03:36:39.716Z,10.70
2019-03-20T03:39:10.544Z,10.70
2019-03-20T03:41:40.011Z,10.50
2019-03-20T03:44:09.583Z,10.60
2019-03-20T03:46:39.360Z,10.70
2019-03-20T03:49:08.809Z,10.60
2019-03-20T03:51:42.395Z,10.70
2019-03-20T03:54:11.960Z,10.90
2019-03-20T03:56:41.622Z,10.80
2019-03-20T03:59:11.350Z,10.80
2019-03-20T04:01:41.774Z,10.80
2019-03-20T04:04:12.126Z,10.80
2019-03-20T04:06:42.337Z,10.80
2019-03-20T04:09:11.921Z,10.90
2019-03-20T04:11:42.626Z,10.80
2019-03-20T04:14:12.198Z,10.80
2019-03-20T04:16:41.670Z,10.70
2019-03-20T04:19:11.181Z,10.70
2019-03-20T04:21:40.682Z,10.80
2019-03-20T04:24:11.016Z,10.80
2019-03-20T04:26:41.891Z,10.80
2019-03-20T04:29:11.398Z,10.80
2019-03-20T04:31:40.957Z,10.90
2019-03-20T04:34:10.388Z,10.90
2019-03-20T04:36:47.739Z,11.10
2019-03-20T04:39:11.053Z,11.00
2019-03-20T04:41:41.041Z,10.90
2019-03-20T04:44:10.476Z,11.00
2019-03-20T04:46:39.973Z,10.90
2019-03-20T04:49:10.862Z,10.90
2019-03-20T04:51:40.493Z,11.00
2019-03-20T04:54:09.929Z,11.00
2019-03-20T04:56:39.366Z,11.00
2019-03-20T04:59:09.740Z,11.20
2019-03-20T05:01:39.326Z,11.10
2019-03-20T05:04:08.784Z,11.00
2019-03-20T05:06:38.378Z,11.00
2019-03-20T05:09:08.032Z,11.00
2019-03-20T05:11:37.493Z,11.10
2019-03-20T05:14:06.967Z,11.20
2019-03-20T05:16:36.472Z,11.10
2019-03-20T05:19:07.141Z,11.00
2019-03-20T05:21:36.584Z,11.00
2019-03-20T05:24:06.256Z,11.00
2019-03-20T05:26:37.287Z,10.90
2019-03-20T05:29:06.724Z,11.00
2019-03-20T05:31:36.146Z,11.00
2019-03-20T05:34:05.600Z,11.00
2019-03-20T05:36:35.207Z,10.90
2019-03-20T05:39:06.689Z,11.00
2019-03-20T05:41:36.662Z,11.00
2019-03-20T05:44:06.250Z,10.90
2019-03-20T05:46:35.945Z,10.90
2019-03-20T05:49:05.446Z,11.00
2019-03-20T05:51:34.986Z,10.90
2019-03-20T05:54:04.913Z,11.00
2019-03-20T05:56:34.334Z,11.00
2019-03-20T05:59:04.057Z,11.00
2019-03-20T06:01:33.480Z,11.00
2019-03-20T06:04:02.961Z,11.10
2019-03-20T06:06:32.455Z,11.00
2019-03-20T06:09:04.037Z,10.80
2019-03-20T06:11:34.309Z,10.80
2019-03-20T06:14:03.761Z,10.80
2019-03-20T06:16:33.306Z,10.80
2019-03-20T06:19:02.990Z,10.90
2019-03-20T06:21:32.426Z,10.90
2019-03-20T06:24:01.985Z,11.00
2019-03-20T06:26:31.999Z,11.10
2019-03-20T06:29:04.524Z,11.00
2019-03-20T06:31:34.057Z,11.10
2019-03-20T06:34:03.558Z,11.10
2019-03-20T06:36:33.075Z,11.10
2019-03-20T06:39:04.911Z,11.00
2019-03-20T06:41:33.835Z,11.20
2019-03-20T06:44:03.444Z,11.00
2019-03-20T06:46:32.981Z,11.00
2019-03-20T06:49:04.017Z,11.00
2019-03-20T06:51:33.626Z,11.10
2019-03-20T06:54:03.175Z,11.10
2019-03-20T06:56:35.706Z,11.10
2019-03-20T06:59:43.137Z,11.20
2019-03-20T07:02:12.482Z,11.20
2019-03-20T07:05:16.492Z,11.10
2019-03-20T07:07:45.782Z,11.20
2019-03-20T07:11:00.647Z,11.20
2019-03-20T07:13:31.573Z,11.30
2019-03-20T07:16:01.555Z,11.40
2019-03-20T07:18:31.333Z,11.30
2019-03-20T07:21:00.855Z,11.50
2019-03-20T07:23:30.388Z,11.50
2019-03-20T07:26:01.085Z,11.60
2019-03-20T07:28:31.484Z,11.40
2019-03-20T07:31:15.213Z,11.40
2019-03-20T07:33:38.200Z,11.50
2019-03-20T07:36:08.596Z,11.40
2019-03-20T07:38:38.060Z,11.50
2019-03-20T07:41:07.887Z,11.40
2019-03-20T07:43:37.473Z,11.50
2019-03-20T07:46:07.122Z,11.60
2019-03-20T07:48:36.721Z,11.80
2019-03-20T07:51:06.546Z,11.90
2019-03-20T07:53:36.017Z,11.90
2019-03-20T07:56:05.498Z,11.90
2019-03-20T07:58:34.981Z,11.80
2019-03-20T08:01:04.597Z,11.70
2019-03-20T08:03:34.141Z,11.70
2019-03-20T08:06:03.625Z,11.80
2019-03-20T08:08:33.053Z,11.90
2019-03-20T08:11:02.934Z,11.90
2019-03-20T08:13:32.388Z,11.90
2019-03-20T08:16:03.942Z,11.90
2019-03-20T08:18:34.515Z,12.00
2019-03-20T08:21:05.399Z,12.00
2019-03-20T08:23:35.046Z,12.00
2019-03-20T08:26:06.380Z,12.20
2019-03-20T08:28:36.439Z,12.20
2019-03-20T08:31:06.351Z,12.20
2019-03-20T08:33:36.855Z,12.30
2019-03-20T08:36:06.566Z,12.40
2019-03-20T08:38:36.330Z,12.60
2019-03-20T08:41:06.056Z,12.60
2019-03-20T08:43:35.685Z,12.70
2019-03-20T08:46:05.451Z,12.70
2019-03-20T08:48:35.649Z,12.70
2019-03-20T08:51:05.216Z,12.80
2019-03-20T08:53:36.078Z,13.00
2019-03-20T08:56:08.621Z,13.20
2019-03-20T08:58:38.361Z,13.20
2019-03-20T09:01:08.052Z,13.20
2019-03-20T09:03:38.173Z,13.00
2019-03-20T09:06:09.144Z,13.00
2019-03-20T09:08:38.783Z,13.00
2019-03-20T09:11:08.388Z,13.20
2019-03-20T09:13:38.256Z,13.30
2019-03-20T09:16:08.800Z,13.40
2019-03-20T09:18:46.261Z,13.40
2019-03-20T09:21:16.803Z,13.40
2019-03-20T09:23:46.412Z,13.30
2019-03-20T09:26:18.568Z,13.40
2019-03-20T09:28:48.291Z,13.30
2019-03-20T09:31:32.158Z,13.40
2019-03-20T09:34:07.135Z,13.50
2019-03-20T09:36:43.413Z,13.40
2019-03-20T09:39:15.710Z,13.20
2019-03-20T09:41:46.731Z,13.20
2019-03-20T09:44:21.542Z,13.30
2019-03-20T09:46:55.562Z,13.10
2019-03-20T09:49:26.208Z,13.20
2019-03-20T09:51:59.045Z,13.20
2019-03-20T09:54:32.294Z,13.30
2019-03-20T09:57:11.500Z,13.30
2019-03-20T09:59:42.528Z,13.20
2019-03-20T10:02:20.072Z,13.30
2019-03-20T10:04:54.307Z,13.30
2019-03-20T10:07:24.442Z,13.20
2019-03-20T10:09:57.583Z,13.10
2019-03-20T10:12:30.610Z,13.30
2019-03-20T10:15:05.124Z,13.60
2019-03-20T10:17:35.004Z,13.50
2019-03-20T10:20:10.538Z,13.50
2019-03-20T10:22:40.266Z,13.50
2019-03-20T10:25:12.126Z,13.40
2019-03-20T10:27:43.447Z,13.40
2019-03-20T10:30:25.812Z,13.50
2019-03-20T10:32:56.329Z,13.70
2019-03-20T10:35:28.357Z,13.80
2019-03-20T10:37:57.897Z,13.90
2019-03-20T10:40:27.406Z,13.80
2019-03-20T10:42:56.911Z,13.80
2019-03-20T10:45:26.534Z,13.70
2019-03-20T10:47:56.271Z,13.60
2019-03-20T10:50:25.937Z,13.70
2019-03-20T10:52:55.596Z,13.50
2019-03-20T10:55:25.243Z,13.60
2019-03-20T10:57:54.860Z,13.60
2019-03-20T11:00:24.517Z,13.50
2019-03-20T11:02:54.099Z,13.40
2019-03-20T11:05:23.807Z,13.40
2019-03-20T11:07:53.314Z,13.50
2019-03-20T11:10:24.042Z,13.80
2019-03-20T11:12:53.735Z,13.70
2019-03-20T11:15:23.317Z,13.90
2019-03-20T11:17:52.898Z,14.00
2019-03-20T11:20:22.816Z,14.40
2019-03-20T11:22:54.038Z,15.30
2019-03-20T11:25:23.592Z,16.40
2019-03-20T11:27:53.147Z,17.20
2019-03-20T11:30:26.030Z,17.60
2019-03-20T11:32:56.017Z,17.90
2019-03-20T11:35:25.890Z,19.50
2019-03-20T11:37:55.432Z,21.40
2019-03-20T11:40:27.198Z,21.90
2019-03-20T11:42:56.775Z,22.30
2019-03-20T11:45:26.341Z,21.20
2019-03-20T11:47:56.016Z,21.60
2019-03-20T11:50:30.465Z,22.60
2019-03-20T11:53:00.177Z,22.90
2019-03-20T11:55:29.657Z,22.20
2019-03-20T11:57:59.268Z,21.80
2019-03-20T12:00:28.891Z,21.40
2019-03-20T12:02:58.424Z,21.40
2019-03-20T12:05:27.995Z,21.10
2019-03-20T12:07:57.565Z,21.30
2019-03-20T12:10:28.134Z,21.80
2019-03-20T12:12:58.549Z,21.50
2019-03-20T12:15:28.130Z,21.20
2019-03-20T12:17:57.559Z,21.40
2019-03-20T12:20:28.731Z,20.80
2019-03-20T12:22:58.366Z,20.20
2019-03-20T12:25:28.998Z,19.80
2019-03-20T12:27:58.522Z,19.50
2019-03-20T12:30:29.073Z,19.50
2019-03-20T12:32:58.906Z,19.30
2019-03-20T12:35:30.379Z,19.50
2019-03-20T12:37:59.909Z,19.80
2019-03-20T12:40:30.080Z,20.00
2019-03-20T12:42:59.793Z,20.10
2019-03-20T12:45:31.113Z,20.10
2019-03-20T12:48:01.215Z,20.10
2019-03-20T12:50:30.978Z,20.00
2019-03-20T12:53:01.955Z,19.90
2019-03-20T12:55:31.701Z,19.80
2019-03-20T12:58:01.286Z,20.20
2019-03-20T13:00:31.076Z,20.30
2019-03-20T13:03:00.636Z,20.90
2019-03-20T13:05:34.380Z,21.50
2019-03-20T13:08:06.059Z,21.40
2019-03-20T13:10:35.800Z,20.90
2019-03-20T13:13:05.394Z,20.50
2019-03-20T13:15:36.964Z,20.10
2019-03-20T13:18:06.544Z,20.00
2019-03-20T13:20:36.238Z,20.10
2019-03-20T13:23:08.683Z,20.80
2019-03-20T13:25:38.333Z,20.80
2019-03-20T13:28:07.945Z,20.50
2019-03-20T13:30:41.789Z,21.50
2019-03-20T13:33:11.373Z,22.30
2019-03-20T13:35:42.422Z,22.70
2019-03-20T13:38:11.991Z,23.70
2019-03-20T13:40:41.730Z,23.70
2019-03-20T13:43:11.363Z,23.50
2019-03-20T13:45:40.899Z,22.10
2019-03-20T13:48:10.488Z,21.20
2019-03-20T13:50:41.573Z,20.60
2019-03-20T13:53:11.171Z,20.00
2019-03-20T13:55:51.451Z,20.00
2019-03-20T13:58:20.973Z,20.60
2019-03-20T14:00:52.357Z,21.30
2019-03-20T14:03:22.737Z,20.90
2019-03-20T14:05:54.690Z,20.90
2019-03-20T14:08:24.607Z,20.50
2019-03-20T14:10:55.143Z,20.50
2019-03-20T14:13:24.852Z,21.80
2019-03-20T14:15:54.398Z,22.00
2019-03-20T14:18:23.881Z,21.80
2019-03-20T14:20:53.708Z,21.80
2019-03-20T14:23:23.293Z,21.10
2019-03-20T14:25:52.929Z,20.60
2019-03-20T14:28:22.463Z,20.30
2019-03-20T14:30:53.556Z,20.00
2019-03-20T14:33:23.385Z,19.60
2019-03-20T14:35:53.098Z,19.30
2019-03-20T14:38:22.755Z,18.70
2019-03-20T14:40:52.315Z,18.50
2019-03-20T14:43:21.869Z,18.20
2019-03-20T14:45:51.529Z,17.90
2019-03-20T14:48:21.061Z,17.80
2019-03-20T14:50:50.523Z,17.80
2019-03-20T14:53:21.346Z,17.30
2019-03-20T14:55:50.845Z,17.30
2019-03-20T14:58:20.349Z,17.20
2019-03-20T15:00:49.921Z,17.20
2019-03-20T15:03:19.493Z,17.10
2019-03-20T15:05:49.294Z,17.00
2019-03-20T15:08:18.977Z,16.80
2019-03-20T15:10:48.676Z,16.70
2019-03-20T15:13:18.436Z,16.80
2019-03-20T15:15:56.043Z,16.60
2019-03-20T15:18:26.551Z,16.50
2019-03-20T15:20:57.477Z,16.40
2019-03-20T15:23:28.186Z,16.30
2019-03-20T15:26:01.674Z,16.00
2019-03-20T15:28:32.179Z,15.90
2019-03-20T15:31:02.794Z,15.90
2019-03-20T15:33:40.206Z,15.70
2019-03-20T15:36:16.507Z,15.70
2019-03-20T15:38:46.302Z,15.70
2019-03-20T15:41:16.807Z,15.50
2019-03-20T15:43:46.602Z,15.30
2019-03-20T15:46:16.773Z,15.20
2019-03-20T15:48:54.671Z,15.30
2019-03-20T15:51:24.833Z,15.00
2019-03-20T15:54:21.235Z,14.90
2019-03-20T15:56:51.318Z,14.80
2019-03-20T15:59:23.169Z,14.60
2019-03-20T16:01:53.062Z,14.60
2019-03-20T16:04:26.877Z,14.60
2019-03-20T16:06:57.127Z,14.60
2019-03-20T16:09:28.946Z,14.70
2019-03-20T16:12:03.822Z,14.70
2019-03-20T16:17:18.846Z,14.50
2019-03-20T16:23:05.720Z,14.40
2019-03-20T16:25:45.153Z,14.30
2019-03-20T16:28:15.937Z,14.20
2019-03-20T16:34:14.222Z,14.10
2019-03-20T16:36:46.916Z,13.90
2019-03-20T16:39:40.392Z,13.80
2019-03-20T16:42:09.040Z,13.90
2019-03-20T16:44:47.280Z,13.50
2019-03-20T16:47:24.252Z,13.70
2019-03-20T16:52:52.657Z,13.70
2019-03-20T16:55:24.099Z,13.60
2019-03-20T16:58:06.961Z,13.70
2019-03-20T17:01:23.979Z,13.70
2019-03-20T17:03:55.383Z,13.70
2019-03-20T17:06:25.279Z,13.60
2019-03-20T17:08:58.038Z,13.50
2019-03-20T17:11:38.143Z,13.60
2019-03-20T17:14:04.216Z,13.50
2019-03-20T17:16:33.929Z,13.50
2019-03-20T17:19:03.628Z,13.40
2019-03-20T17:21:35.858Z,13.40
2019-03-20T17:24:06.115Z,13.20
2019-03-20T17:26:36.109Z,13.30
2019-03-20T17:29:09.178Z,13.20
2019-03-20T17:31:46.959Z,13.30
2019-03-20T17:34:17.072Z,13.30
2019-03-20T17:36:47.206Z,13.30
2019-03-20T17:39:18.486Z,13.20
2019-03-20T17:41:48.145Z,13.10
2019-03-20T17:44:19.183Z,13.10
2019-03-20T17:46:48.780Z,13.10
2019-03-20T17:49:19.884Z,13.10
2019-03-20T17:51:49.371Z,13.10
2019-03-20T17:54:18.953Z,13.10
2019-03-20T17:56:50.209Z,13.00
2019-03-20T17:59:20.056Z,13.00
2019-03-20T18:01:49.720Z,13.00
2019-03-20T18:04:19.273Z,13.10
2019-03-20T18:06:48.779Z,13.20
2019-03-20T18:09:18.310Z,13.20
2019-03-20T18:11:47.966Z,13.10
2019-03-20T18:14:17.471Z,13.10
2019-03-20T18:16:47.100Z,13.10
2019-03-20T18:19:19.286Z,13.00
2019-03-20T18:21:48.801Z,13.00
2019-03-20T18:24:20.715Z,13.00
2019-03-20T18:26:50.206Z,13.00
2019-03-20T18:29:19.868Z,12.90
2019-03-20T18:31:49.452Z,13.00
2019-03-20T18:34:18.924Z,13.10
2019-03-20T18:36:48.726Z,13.20
2019-03-20T18:39:20.508Z,13.10
2019-03-20T18:41:57.695Z,13.00
2019-03-20T18:44:31.903Z,13.00
2019-03-20T18:47:48.964Z,13.10
2019-03-20T18:50:26.194Z,13.20
2019-03-20T18:56:22.982Z,13.20
2019-03-20T18:58:56.056Z,13.20
2019-03-20T19:01:26.353Z,13.10
2019-03-20T19:03:56.471Z,13.10
2019-03-20T19:06:31.360Z,13.20
2019-03-20T19:09:01.993Z,13.10
2019-03-20T19:14:57.684Z,13.20
2019-03-20T19:17:27.275Z,13.10
2019-03-20T19:19:56.864Z,13.00
2019-03-20T19:22:26.800Z,13.00
2019-03-20T19:24:56.508Z,13.10
2019-03-20T19:27:26.038Z,13.10
2019-03-20T19:29:55.650Z,13.10
2019-03-20T19:32:26.145Z,13.20
2019-03-20T19:35:41.668Z,13.10
2019-03-20T19:38:35.076Z,13.10
2019-03-20T19:41:09.052Z,13.10
2019-03-20T19:43:40.540Z,13.00
2019-03-20T19:46:11.552Z,13.10
2019-03-20T19:48:41.081Z,13.00
2019-03-20T19:51:10.698Z,13.00
2019-03-20T19:53:40.992Z,12.90
2019-03-20T19:56:10.465Z,12.90
2019-03-20T19:58:42.177Z,12.90
2019-03-20T20:01:13.228Z,12.80
2019-03-20T20:03:43.261Z,12.70
2019-03-20T20:06:12.804Z,12.80
2019-03-20T20:09:06.734Z,12.80
2019-03-20T20:11:36.421Z,12.90
2019-03-20T20:14:06.467Z,12.90
2019-03-20T20:16:36.109Z,12.80
2019-03-20T20:19:24.833Z,12.80
2019-03-20T20:21:57.571Z,12.80
2019-03-20T20:24:27.678Z,12.80
2019-03-20T20:26:57.307Z,12.80
2019-03-20T20:29:26.791Z,12.90
2019-03-20T20:35:47.446Z,12.80
2019-03-20T20:38:17.496Z,12.90
2019-03-20T20:40:48.434Z,12.70
2019-03-20T20:43:18.419Z,12.80
2019-03-20T20:45:53.441Z,12.80
2019-03-20T20:49:03.333Z,12.70
2019-03-20T20:51:46.658Z,12.80
2019-03-20T20:54:21.906Z,12.90
2019-03-20T20:56:54.143Z,12.80
2019-03-20T20:59:26.545Z,12.70
2019-03-20T21:01:56.156Z,12.70
2019-03-20T21:04:26.633Z,12.60
2019-03-20T21:06:57.900Z,12.60
2019-03-20T21:09:30.525Z,12.50
2019-03-20T21:12:03.703Z,12.60
2019-03-20T21:14:33.378Z,12.60
2019-03-20T21:17:03.464Z,12.40
2019-03-20T21:19:37.608Z,12.40
2019-03-20T21:22:49.158Z,12.30
2019-03-20T21:25:20.640Z,12.20
2019-03-20T21:28:31.596Z,12.30
2019-03-20T21:31:25.665Z,12.30
2019-03-20T21:34:36.392Z,12.20
2019-03-20T21:37:42.653Z,12.10
2019-03-20T21:40:15.296Z,12.20
2019-03-20T21:43:20.648Z,12.00
2019-03-20T21:46:46.565Z,12.00
2019-03-20T21:49:16.766Z,11.90
2019-03-20T21:51:48.201Z,11.70
2019-03-20T21:54:54.609Z,11.60
2019-03-20T21:57:53.145Z,11.60
2019-03-20T22:01:19.124Z,11.60
2019-03-20T22:03:49.346Z,11.50
2019-03-20T22:07:09.058Z,11.30
2019-03-20T22:10:15.324Z,11.30
2019-03-20T22:13:21.157Z,11.20
2019-03-20T22:16:26.470Z,11.20
2019-03-20T22:19:34.296Z,11.30
2019-03-20T22:22:52.961Z,11.20
2019-03-20T22:25:47.028Z,11.30
2019-03-20T22:28:35.938Z,11.20
2019-03-20T22:31:06.097Z,11.10
2019-03-20T22:34:11.420Z,11.20
2019-03-20T22:36:43.027Z,11.20
2019-03-20T22:39:55.834Z,11.10
2019-03-20T22:42:48.924Z,11.00
2019-03-20T22:46:06.805Z,10.90
2019-03-20T22:49:03.746Z,10.90
2019-03-20T22:51:52.363Z,10.90
2019-03-20T22:54:53.701Z,10.80
2019-03-20T22:57:39.683Z,10.70
2019-03-20T23:00:10.353Z,10.60
2019-03-20T23:03:00.170Z,10.50
2019-03-20T23:05:30.279Z,10.50
2019-03-20T23:08:00.401Z,10.50
2019-03-20T23:10:30.843Z,10.50
2019-03-20T23:13:01.138Z,10.40
2019-03-20T23:15:31.202Z,10.30
2019-03-20T23:18:01.337Z,10.40
2019-03-20T23:20:31.463Z,10.40
2019-03-20T23:23:01.527Z,10.50
2019-03-20T23:25:42.227Z,10.40
2019-03-20T23:28:12.419Z,10.50
2019-03-20T23:30:42.494Z,10.50
2019-03-20T23:33:12.490Z,10.60
2019-03-20T23:35:45.421Z,10.70
2019-03-20T23:38:15.497Z,10.90
2019-03-20T23:40:46.138Z,10.90
2019-03-20T23:43:17.135Z,11.00
2019-03-20T23:45:48.012Z,11.00
2019-03-20T23:48:40.495Z,11.10
2019-03-20T23:51:13.734Z,10.80
2019-03-20T23:53:47.388Z,10.70
2019-03-20T23:56:25.429Z,10.70
2019-03-20T23:58:55.526Z,10.60
